Time;durP1;ratioP1;P1;durP2;ratioP2;P2;SDS_P1;SDS_P2;PMS_P1;PMS_P2;Temp;Humidity;BMP_temperature;BMP_pressure;BME280_temperature;BME280_humidity;BME280_pressure;Samples;Min_cycle;Max_cycle;Signal;HPM_P1;HPM_P2
2020/12/22 00:02:02;;;;;;;187.35;66.53;;;;;;;1.44;100.00;102472.03;5053613;28;20056;-78
2020/12/22 00:04:28;;;;;;;176.82;65.18;;;;;;;1.42;100.00;102472.13;5053210;28;20496;-78
2020/12/22 00:06:58;;;;;;;175.80;64.28;;;;;;;1.48;100.00;102476.94;5052344;28;20021;-78
2020/12/22 00:09:25;;;;;;;163.40;60.13;;;;;;;1.37;100.00;102469.81;5045937;28;20021;-79
2020/12/22 00:11:50;;;;;;;148.38;55.90;;;;;;;1.36;100.00;102472.53;5052097;28;20094;-78
2020/12/22 00:14:16;;;;;;;169.27;58.08;;;;;;;1.42;100.00;102469.50;5052975;28;20404;-77
2020/12/22 00:16:41;;;;;;;162.43;58.95;;;;;;;1.43;100.00;102468.56;5053923;28;20029;-78
2020/12/22 00:19:07;;;;;;;188.50;66.97;;;;;;;1.47;100.00;102469.19;5038789;28;20386;-78
2020/12/22 00:21:36;;;;;;;158.60;57.83;;;;;;;1.46;100.00;102470.16;5034356;28;20030;-77
2020/12/22 00:24:02;;;;;;;164.07;61.03;;;;;;;1.43;100.00;102470.38;5035780;28;20092;-79
2020/12/22 00:26:28;;;;;;;144.38;56.05;;;;;;;1.46;100.00;102478.00;5048746;28;20017;-78
2020/12/22 00:28:53;;;;;;;134.40;53.53;;;;;;;1.45;100.00;102476.31;5049085;28;20022;-78
2020/12/22 00:31:19;;;;;;;146.70;56.80;;;;;;;1.48;100.00;102476.94;5055018;28;20527;-78
2020/12/22 00:33:45;;;;;;;149.35;57.58;;;;;;;1.50;100.00;102484.72;5047568;28;20029;-78
2020/12/22 00:36:10;;;;;;;154.82;58.00;;;;;;;1.35;100.00;102482.19;5054764;28;20036;-79
2020/12/22 00:38:36;;;;;;;153.27;59.92;;;;;;;1.41;100.00;102485.34;5054122;28;20094;-78
2020/12/22 00:41:01;;;;;;;180.05;66.38;;;;;;;1.39;100.00;102488.03;5054554;28;20029;-78
2020/12/22 00:43:27;;;;;;;158.52;59.85;;;;;;;1.37;100.00;102485.53;5053617;28;20039;-78
2020/12/22 00:45:53;;;;;;;168.98;61.55;;;;;;;1.33;100.00;102485.84;5053728;28;20025;-78
2020/12/22 00:48:18;;;;;;;169.25;60.97;;;;;;;1.31;100.00;102491.19;5053907;28;20094;-79
2020/12/22 00:50:43;;;;;;;163.40;60.40;;;;;;;1.41;100.00;102485.34;5053354;28;20041;-78
2020/12/22 00:53:09;;;;;;;175.40;63.70;;;;;;;1.44;100.00;102490.38;5054123;28;20468;-78
2020/12/22 00:55:34;;;;;;;160.90;60.33;;;;;;;1.36;100.00;102488.25;5053807;28;20538;-78
2020/12/22 00:57:59;;;;;;;154.65;59.13;;;;;;;1.32;100.00;102481.53;5053537;28;20035;-77
2020/12/22 01:00:38;;;;;;;158.93;59.03;;;;;;;1.44;100.00;102483.34;5069460;28;20473;-78
2020/12/22 01:03:03;;;;;;;165.57;63.10;;;;;;;1.37;100.00;102496.00;5053038;28;20076;-78
2020/12/22 01:05:28;;;;;;;187.38;72.45;;;;;;;1.38;100.00;102484.59;5054405;28;20501;-78
2020/12/22 01:07:54;;;;;;;167.93;62.50;;;;;;;1.28;100.00;102490.56;5053290;28;20044;-77
2020/12/22 01:10:19;;;;;;;173.75;65.10;;;;;;;1.33;100.00;102488.44;5052827;28;20130;-78
2020/12/22 01:12:45;;;;;;;183.90;69.45;;;;;;;1.37;100.00;102489.94;5053656;28;20377;-78
2020/12/22 01:15:10;;;;;;;195.68;72.13;;;;;;;1.44;100.00;102492.97;5053244;28;20111;-78
2020/12/22 01:17:35;;;;;;;195.10;76.43;;;;;;;1.44;100.00;102493.81;5053007;28;20040;-78
2020/12/22 01:20:07;;;;;;;175.05;68.53;;;;;;;1.28;100.00;102490.56;5051827;28;20130;-78
2020/12/22 01:22:32;;;;;;;174.32;64.15;;;;;;;1.28;100.00;102487.94;5053991;28;20037;-78
2020/12/22 01:24:58;;;;;;;184.93;72.40;;;;;;;1.38;100.00;102484.59;5053329;28;20037;-77
2020/12/22 01:27:23;;;;;;;189.25;74.30;;;;;;;1.44;100.00;102490.38;5053202;28;20032;-78
2020/12/22 01:29:48;;;;;;;181.75;69.32;;;;;;;1.49;100.00;102490.91;5053011;28;20142;-78
2020/12/22 01:32:14;;;;;;;187.48;70.90;;;;;;;1.38;100.00;102487.22;5053310;28;20040;-78
2020/12/22 01:34:39;;;;;;;185.50;70.47;;;;;;;1.43;100.00;102488.69;5054132;28;20060;-78
2020/12/22 01:37:10;;;;;;;186.75;75.55;;;;;;;1.38;100.00;102489.81;5053648;28;20484;-78
2020/12/22 01:39:35;;;;;;;180.52;68.00;;;;;;;1.50;100.00;102482.09;5053376;28;20105;-77
2020/12/22 01:42:06;;;;;;;188.70;73.25;;;;;;;1.47;100.00;102483.13;5053906;28;20376;-78
2020/12/22 01:44:31;;;;;;;188.05;73.28;;;;;;;1.53;100.00;102479.25;5053437;28;20108;-78
2020/12/22 01:46:58;;;;;;;179.55;72.80;;;;;;;1.56;100.00;102484.28;5052879;28;20116;-77
2020/12/22 01:49:25;;;;;;;189.27;73.05;;;;;;;1.47;100.00;102482.31;5053822;28;20043;-78
2020/12/22 01:51:53;;;;;;;208.55;83.38;;;;;;;1.53;100.00;102479.25;5052449;28;20555;-78
2020/12/22 01:54:18;;;;;;;197.27;76.18;;;;;;;1.49;100.00;102477.81;5053890;28;20052;-78
2020/12/22 01:56:45;;;;;;;212.82;82.63;;;;;;;1.53;100.00;102489.75;5053767;28;20488;-76
2020/12/22 01:59:12;;;;;;;200.80;79.13;;;;;;;1.52;100.00;102478.44;5053576;28;20029;-77
2020/12/22 02:01:37;;;;;;;184.93;69.25;;;;;;;1.49;100.00;102478.63;5052825;28;20063;-78
2020/12/22 02:04:05;;;;;;;190.02;70.55;;;;;;;1.54;100.00;102476.56;5052531;28;20060;-77
2020/12/22 02:06:32;;;;;;;152.65;55.83;;;;;;;1.55;100.00;102473.00;5053420;28;20472;-78
2020/12/22 02:08:58;;;;;;;148.77;52.20;;;;;;;1.46;100.00;102481.47;5052450;28;20112;-77
2020/12/22 02:11:28;;;;;;;159.85;56.15;;;;;;;1.52;100.00;102475.81;5053461;28;20122;-78
2020/12/22 02:13:54;;;;;;;154.60;58.00;;;;;;;1.55;100.00;102486.09;5052470;28;20057;-78
2020/12/22 02:16:20;;;;;;;167.98;58.47;;;;;;;1.60;100.00;102470.03;5051958;28;20090;-79
2020/12/22 02:18:47;;;;;;;159.68;56.70;;;;;;;1.57;100.00;102473.72;5051823;28;20472;-78
2020/12/22 02:21:12;;;;;;;172.07;58.90;;;;;;;1.57;100.00;102473.72;5053256;28;20035;-76
2020/12/22 02:23:38;;;;;;;168.50;55.55;;;;;;;1.51;100.00;102468.91;5052262;28;20025;-78
2020/12/22 02:26:04;;;;;;;162.15;54.15;;;;;;;1.56;100.00;102469.41;5052834;28;20056;-78
2020/12/22 02:28:29;;;;;;;166.85;56.42;;;;;;;1.57;100.00;102467.63;5052229;28;20448;-78
2020/12/22 02:30:54;;;;;;;155.45;55.80;;;;;;;1.63;100.00;102461.97;5051838;28;20033;-77
2020/12/22 02:33:20;;;;;;;163.75;55.28;;;;;;;1.59;100.00;102466.59;5051964;28;20032;-78
2020/12/22 02:35:45;;;;;;;158.73;55.75;;;;;;;1.66;100.00;102466.16;5052073;28;20025;-79
2020/12/22 02:38:11;;;;;;;156.63;54.05;;;;;;;1.71;100.00;102464.91;5052216;28;20033;-79
2020/12/22 02:40:36;;;;;;;139.32;51.67;;;;;;;1.65;100.00;102462.72;5051351;28;20028;-78
2020/12/22 02:43:09;;;;;;;152.77;52.63;;;;;;;1.65;100.00;102462.72;5051885;28;20033;-78
2020/12/22 02:45:36;;;;;;;142.75;50.88;;;;;;;1.60;100.00;102457.81;5048326;28;20477;-78
2020/12/22 02:48:01;;;;;;;140.93;51.13;;;;;;;1.66;100.00;102461.75;5052094;28;20047;-78
2020/12/22 02:50:27;;;;;;;141.00;48.40;;;;;;;1.60;100.00;102464.81;5052636;28;20025;-78
2020/12/22 02:52:52;;;;;;;136.55;46.47;;;;;;;1.62;100.00;102465.53;5050472;28;20056;-78
2020/12/22 02:55:17;;;;;;;142.00;49.45;;;;;;;1.66;100.00;102456.53;5052789;28;20033;-77
2020/12/22 02:57:43;;;;;;;139.98;47.17;;;;;;;1.64;100.00;102457.59;5056871;28;20048;-77
2020/12/22 03:00:08;;;;;;;121.88;43.45;;;;;;;1.60;100.00;102457.81;5055653;28;20025;-78
2020/12/22 03:02:34;;;;;;;132.48;48.42;;;;;;;1.59;100.00;102450.03;5055975;28;20032;-78
2020/12/22 03:04:59;;;;;;;132.20;44.65;;;;;;;1.71;100.00;102457.06;5055812;28;20025;-78
2020/12/22 03:07:25;;;;;;;126.07;45.30;;;;;;;1.63;100.00;102456.72;5055887;28;20119;-78
2020/12/22 03:09:50;;;;;;;120.60;43.30;;;;;;;1.67;100.00;102452.97;5055636;28;20036;-79
2020/12/22 03:12:15;;;;;;;137.10;45.45;;;;;;;1.65;100.00;102460.09;5055698;28;20513;-78
2020/12/22 03:14:41;;;;;;;134.48;46.15;;;;;;;1.64;100.00;102454.97;5055795;28;20036;-78
2020/12/22 03:17:06;;;;;;;127.68;41.55;;;;;;;1.72;100.00;102460.50;5055904;28;20036;-76
2020/12/22 03:19:31;;;;;;;128.55;41.78;;;;;;;1.66;100.00;102459.13;5056632;28;20115;-78
2020/12/22 03:21:57;;;;;;;120.18;40.33;;;;;;;1.65;100.00;102449.63;5056855;28;20037;-78
2020/12/22 03:24:22;;;;;;;135.35;45.20;;;;;;;1.60;100.00;102441.22;5055638;28;20099;-78
2020/12/22 03:26:47;;;;;;;133.60;43.17;;;;;;;1.73;100.00;102449.09;5055596;28;20111;-78
2020/12/22 03:29:13;;;;;;;134.23;42.17;;;;;;;1.67;100.00;102445.13;5055170;28;20051;-77
2020/12/22 03:31:38;;;;;;;126.13;42.45;;;;;;;1.66;100.00;102443.41;5056232;28;20037;-78
2020/12/22 03:34:04;;;;;;;121.85;42.50;;;;;;;1.68;100.00;102449.41;5056266;28;20087;-78
2020/12/22 03:36:29;;;;;;;133.82;45.45;;;;;;;1.66;100.00;102443.41;5056434;28;20098;-78
2020/12/22 03:38:54;;;;;;;116.35;40.55;;;;;;;1.62;100.00;102451.63;5054995;28;20040;-79
2020/12/22 03:41:21;;;;;;;121.43;41.65;;;;;;;1.60;100.00;102449.94;5055196;28;20114;-78
2020/12/22 03:43:46;;;;;;;128.68;43.45;;;;;;;1.71;100.00;102446.56;5055837;28;20067;-78
2020/12/22 03:46:13;;;;;;;130.88;42.20;;;;;;;1.71;100.00;102451.81;5054764;28;20112;-78
2020/12/22 03:48:38;;;;;;;120.95;41.03;;;;;;;1.67;100.00;102449.53;5054897;28;20107;-79
2020/12/22 03:51:03;;;;;;;129.65;41.63;;;;;;;1.72;100.00;102448.25;5054038;28;20033;-78
2020/12/22 03:53:29;;;;;;;121.40;41.83;;;;;;;1.70;100.00;102451.94;5054756;28;20029;-78
2020/12/22 03:55:55;;;;;;;124.97;41.45;;;;;;;1.71;100.00;102443.97;5055017;28;20039;-78
2020/12/22 03:58:20;;;;;;;128.85;43.97;;;;;;;1.79;100.00;102449.50;5054562;28;20381;-78
2020/12/22 04:00:46;;;;;;;130.88;42.10;;;;;;;1.67;100.00;102446.91;5054408;28;20105;-78
2020/12/22 04:03:11;;;;;;;128.60;43.22;;;;;;;1.72;100.00;102456.09;5054686;28;20017;-78
2020/12/22 04:05:37;;;;;;;127.10;44.92;;;;;;;1.75;100.00;102452.44;5055599;28;20029;-78
2020/12/22 04:08:02;;;;;;;122.32;41.58;;;;;;;1.78;100.00;102449.59;5054730;28;20013;-78
2020/12/22 04:10:28;;;;;;;125.05;43.90;;;;;;;1.68;100.00;102444.16;5054584;28;20016;-78
2020/12/22 04:12:53;;;;;;;136.63;44.60;;;;;;;1.74;100.00;102451.59;5055614;28;20497;-78
2020/12/22 04:15:19;;;;;;;131.82;43.67;;;;;;;1.77;100.00;102451.38;5055523;28;20127;-77
2020/12/22 04:17:44;;;;;;;125.05;42.97;;;;;;;1.81;100.00;102447.59;5054401;28;20090;-78
2020/12/22 04:20:09;;;;;;;133.27;42.42;;;;;;;1.82;100.00;102443.22;5054131;28;20029;-78
2020/12/22 04:22:35;;;;;;;122.88;42.97;;;;;;;1.80;100.00;102445.94;5054544;28;20029;-78
2020/12/22 04:25:00;;;;;;;117.53;40.67;;;;;;;1.79;100.00;102440.81;5054161;28;20454;-78
2020/12/22 04:27:26;;;;;;;141.90;43.33;;;;;;;1.83;100.00;102444.88;5055565;28;20025;-79
2020/12/22 04:29:51;;;;;;;120.78;40.42;;;;;;;1.81;100.00;102441.53;5053953;28;20449;-78
2020/12/22 04:32:17;;;;;;;120.30;40.25;;;;;;;1.80;100.00;102438.06;5055264;28;20056;-77
2020/12/22 04:34:42;;;;;;;121.82;42.30;;;;;;;1.78;100.00;102441.75;5055152;28;20029;-77
2020/12/22 04:37:07;;;;;;;118.13;41.03;;;;;;;1.79;100.00;102443.44;5054353;28;20033;-78
2020/12/22 04:39:33;;;;;;;112.90;39.70;;;;;;;1.68;100.00;102438.09;5053690;28;20462;-77
2020/12/22 04:41:59;;;;;;;119.05;41.45;;;;;;;1.76;100.00;102443.66;5054616;28;20036;-77
2020/12/22 04:44:25;;;;;;;130.43;49.13;;;;;;;1.63;100.00;102443.63;5053884;28;20090;-78
2020/12/22 04:46:51;;;;;;;141.05;45.65;;;;;;;1.58;100.00;102446.59;5065904;28;20033;-79
2020/12/22 04:49:22;;;;;;;139.07;46.05;;;;;;;1.64;100.00;102445.34;5054218;28;20543;-78
2020/12/22 04:51:50;;;;;;;130.02;46.25;;;;;;;1.65;100.00;102443.53;5053153;28;20117;-78
2020/12/22 04:54:18;;;;;;;144.48;47.67;;;;;;;1.65;100.00;102454.84;5054556;28;20033;-78
2020/12/22 04:56:47;;;;;;;126.82;46.40;;;;;;;1.69;100.00;102445.84;5054177;28;20037;-78
2020/12/22 04:59:16;;;;;;;129.02;44.05;;;;;;;1.69;100.00;102448.44;5053243;28;20039;-78
2020/12/22 05:01:42;;;;;;;135.75;45.67;;;;;;;1.65;100.00;102440.94;5053896;28;20051;-78
2020/12/22 05:04:14;;;;;;;136.57;47.72;;;;;;;1.64;100.00;102458.44;5053557;28;20036;-78
2020/12/22 05:06:40;;;;;;;130.95;45.25;;;;;;;1.69;100.00;102455.47;5039686;28;20488;-79
2020/12/22 05:09:06;;;;;;;134.88;45.67;;;;;;;1.67;100.00;102454.78;5053441;28;20037;-77
2020/12/22 05:11:36;;;;;;;138.75;48.20;;;;;;;1.76;100.00;102452.34;5053759;28;20036;-78
2020/12/22 05:14:02;;;;;;;132.75;45.88;;;;;;;1.79;100.00;102459.16;5053424;28;20037;-78
2020/12/22 05:16:28;;;;;;;142.13;47.88;;;;;;;1.73;100.00;102456.97;5053404;28;20025;-78
2020/12/22 05:18:55;;;;;;;138.98;45.97;;;;;;;1.76;100.00;102459.38;5051681;28;20052;-77
2020/12/22 05:21:20;;;;;;;139.73;47.50;;;;;;;1.75;100.00;102462.91;5053243;28;20078;-77
2020/12/22 05:23:50;;;;;;;141.02;46.92;;;;;;;1.69;100.00;102471.19;5052709;28;20033;-77
2020/12/22 05:26:23;;;;;;;142.65;46.40;;;;;;;1.77;100.00;102466.28;5053324;28;20029;-78
2020/12/22 05:28:49;;;;;;;144.65;45.88;;;;;;;1.75;100.00;102470.78;5053970;28;20453;-78
2020/12/22 05:31:16;;;;;;;146.80;48.35;;;;;;;1.75;100.00;102473.41;5052937;28;20102;-78
2020/12/22 05:33:45;;;;;;;150.27;46.05;;;;;;;1.76;100.00;102469.84;5052798;28;20112;-79
2020/12/22 05:36:11;;;;;;;151.77;50.25;;;;;;;1.83;100.00;102478.97;5053050;28;20120;-78
2020/12/22 05:38:38;;;;;;;140.50;46.20;;;;;;;1.76;100.00;102470.69;5052866;28;20047;-78
2020/12/22 05:41:05;;;;;;;145.13;51.08;;;;;;;1.76;100.00;102482.94;5052927;28;20026;-78
2020/12/22 05:43:42;;;;;;;177.85;60.42;;;;;;;1.76;100.00;102491.66;5052495;28;20138;-79
2020/12/22 05:46:08;;;;;;;143.75;45.25;;;;;;;1.69;100.00;102484.28;5050940;28;20393;-79
2020/12/22 05:48:35;;;;;;;342.30;117.93;;;;;;;1.79;100.00;102486.19;5052760;28;20025;-78
2020/12/22 05:51:06;;;;;;;238.63;80.35;;;;;;;1.73;100.00;102478.75;5051958;28;20029;-77
2020/12/22 05:53:32;;;;;;;191.00;65.10;;;;;;;1.77;100.00;102482.00;5052667;28;20075;-78
2020/12/22 05:56:16;;;;;;;226.05;78.50;;;;;;;1.77;100.00;102474.13;5053399;28;20056;-78
2020/12/22 05:58:41;;;;;;;288.00;115.43;;;;;;;1.72;100.00;102476.22;5053311;28;20029;-78
2020/12/22 06:01:12;;;;;;;197.65;67.45;;;;;;;1.64;100.00;102476.78;5052846;28;20033;-78
2020/12/22 06:03:38;;;;;;;157.38;50.30;;;;;;;1.60;100.00;102472.66;5051481;28;20041;-78
2020/12/22 06:06:06;;;;;;;161.15;47.22;;;;;;;1.59;100.00;102471.00;5053727;28;20104;-78
2020/12/22 06:08:32;;;;;;;149.00;50.25;;;;;;;1.60;100.00;102462.19;5052312;28;20094;-78
2020/12/22 06:11:00;;;;;;;147.48;49.67;;;;;;;1.71;100.00;102459.69;5052105;28;20025;-78
2020/12/22 06:13:26;;;;;;;161.85;51.65;;;;;;;1.65;100.00;102462.72;5050474;28;20075;-78
2020/12/22 06:15:52;;;;;;;150.85;49.28;;;;;;;1.64;100.00;102457.59;5051912;28;20463;-78
2020/12/22 06:18:19;;;;;;;174.18;52.28;;;;;;;1.68;100.00;102459.88;5051795;28;20493;-78
2020/12/22 06:20:44;;;;;;;147.73;48.30;;;;;;;1.66;100.00;102458.31;5053132;28;20060;-78
2020/12/22 06:23:10;;;;;;;148.30;50.33;;;;;;;1.70;100.00;102460.63;5052245;28;20075;-77
2020/12/22 06:25:36;;;;;;;154.98;50.13;;;;;;;1.69;100.00;102447.63;5052035;28;20033;-78
2020/12/22 06:28:02;;;;;;;142.63;45.15;;;;;;;1.68;100.00;102456.44;5051867;28;20032;-78
2020/12/22 06:30:38;;;;;;;160.32;50.80;;;;;;;1.68;100.00;102448.56;5051852;28;20021;-78
2020/12/22 06:33:25;;;;;;;143.70;46.63;;;;;;;1.69;100.00;102463.34;5051527;28;20094;-78
2020/12/22 06:36:04;;;;;;;159.95;49.78;;;;;;;1.64;100.00;102450.56;5051047;28;20036;-78
2020/12/22 06:38:54;;;;;;;156.40;51.00;;;;;;;1.73;100.00;102462.19;5053102;28;20043;-78
2020/12/22 06:41:41;;;;;;;156.10;54.80;;;;;;;1.77;100.00;102455.81;5051556;28;20094;-77
2020/12/22 06:44:23;;;;;;;202.18;69.90;;;;;;;1.78;100.00;102463.53;5052089;28;20020;-77
2020/12/22 06:46:54;;;;;;;212.77;76.47;;;;;;;1.75;100.00;102461.13;5052093;28;20043;-78
2020/12/22 06:49:48;;;;;;;178.95;60.17;;;;;;;1.76;100.00;102459.38;5051649;28;20025;-76
2020/12/22 06:52:37;;;;;;;178.93;63.50;;;;;;;1.68;100.00;102462.50;5050489;28;20048;-79
2020/12/22 06:55:05;;;;;;;173.32;56.60;;;;;;;1.77;100.00;102456.63;5050758;28;20171;-78
2020/12/22 06:57:46;;;;;;;163.38;59.10;;;;;;;1.91;100.00;102455.69;5053053;28;20435;-77
2020/12/22 07:00:27;;;;;;;158.07;53.55;;;;;;;1.80;100.00;102466.06;5051799;28;20482;-78
2020/12/22 07:03:16;;;;;;;162.88;52.00;;;;;;;1.77;100.00;102454.00;5051205;28;20037;-77
2020/12/22 07:05:47;;;;;;;156.85;49.17;;;;;;;1.86;100.00;102454.31;5051317;28;20094;-78
2020/12/22 07:08:15;;;;;;;159.70;52.10;;;;;;;1.87;100.00;102451.59;5051639;28;20029;-78
2020/12/22 07:10:43;;;;;;;160.18;51.72;;;;;;;1.84;100.00;102452.63;5049426;28;20036;-77
2020/12/22 07:13:11;;;;;;;153.68;48.28;;;;;;;1.81;100.00;102452.00;5032124;28;20029;-78
2020/12/22 07:15:45;;;;;;;129.27;39.50;;;;;;;2.04;100.00;102443.38;5039449;28;20461;-79
2020/12/22 07:18:29;;;;;;;127.63;40.40;;;;;;;2.14;100.00;102442.75;5047800;28;20045;-78
2020/12/22 07:20:56;;;;;;;126.80;39.80;;;;;;;2.20;100.00;102445.75;5051089;28;20025;-78
2020/12/22 07:23:21;;;;;;;143.98;44.28;;;;;;;2.19;100.00;102453.75;5050481;28;20389;-79
2020/12/22 07:25:47;;;;;;;147.10;44.15;;;;;;;2.18;100.00;102452.91;5050690;28;20021;-78
2020/12/22 07:28:12;;;;;;;117.85;41.50;;;;;;;2.14;100.00;102446.19;5050905;28;20178;-79
2020/12/22 07:30:38;;;;;;;139.35;45.80;;;;;;;2.14;100.00;102443.56;5045681;28;20100;-78
2020/12/22 07:33:04;;;;;;;116.50;38.60;;;;;;;2.02;100.00;102445.28;5051565;28;20036;-78
2020/12/22 07:35:31;;;;;;;130.88;38.47;;;;;;;2.08;100.00;102446.63;5051838;28;20024;-78
2020/12/22 07:38:08;;;;;;;124.70;37.10;;;;;;;2.16;100.00;102448.72;5050194;28;20068;-79
2020/12/22 07:40:37;;;;;;;115.95;37.47;;;;;;;2.25;100.00;102453.31;5046459;28;20029;-77
2020/12/22 07:43:08;;;;;;;106.28;32.53;;;;;;;2.85;100.00;102449.00;5041185;28;20086;-78
2020/12/22 07:45:33;;;;;;;114.15;34.47;;;;;;;2.55;100.00;102447.66;5034553;28;20405;-78
2020/12/22 07:48:05;;;;;;;105.13;34.60;;;;;;;2.46;100.00;102445.69;5053084;28;20125;-78
2020/12/22 07:50:32;;;;;;;109.10;35.05;;;;;;;2.43;100.00;102440.66;5052837;28;20045;-77
2020/12/22 07:52:58;;;;;;;94.05;29.63;;;;;;;2.40;100.00;102444.34;5052766;28;20049;-79
2020/12/22 07:55:24;;;;;;;100.35;33.67;;;;;;;2.41;100.00;102438.13;5054345;28;20041;-80
2020/12/22 07:57:52;;;;;;;101.80;33.35;;;;;;;2.49;100.00;102441.06;5054285;28;20421;-77
2020/12/22 08:00:20;;;;;;;97.72;31.80;;;;;;;2.55;100.00;102442.41;5053439;28;20032;-78
2020/12/22 08:02:46;;;;;;;100.47;32.65;;;;;;;2.41;100.00;102443.38;5049090;28;20103;-79
2020/12/22 08:05:13;;;;;;;86.25;27.52;;;;;;;2.36;100.00;102449.91;5055025;28;20502;-79
2020/12/22 08:07:42;;;;;;;75.60;25.23;;;;;;;2.53;100.00;102450.38;5053702;28;20354;-80
2020/12/22 08:10:17;;;;;;;75.47;22.77;;;;;;;5.33;100.00;102450.44;5045197;28;20036;-77
2020/12/22 08:12:45;;;;;;;68.80;25.75;;;;;;;5.83;95.14;102453.16;5068941;28;20025;-79
2020/12/22 08:15:10;;;;;;;66.72;23.92;;;;;;;6.17;90.78;102455.53;5053979;28;20551;-78
2020/12/22 08:17:42;;;;;;;79.53;25.67;;;;;;;6.14;89.72;102448.75;5053182;28;20036;-77
2020/12/22 08:20:08;;;;;;;62.55;21.38;;;;;;;4.25;95.92;102449.63;5054349;28;20036;-80
2020/12/22 08:22:35;;;;;;;66.55;22.30;;;;;;;3.13;100.00;102451.22;5055375;28;20047;-78
2020/12/22 08:25:02;;;;;;;69.95;24.75;;;;;;;5.00;100.00;102454.91;5053970;28;20128;-79
2020/12/22 08:27:31;;;;;;;67.10;25.33;;;;;;;3.27;100.00;102444.94;5054448;28;20031;-77
2020/12/22 08:29:57;;;;;;;65.25;24.00;;;;;;;2.99;100.00;102446.16;5053277;28;20445;-78
2020/12/22 08:32:24;;;;;;;71.68;23.73;;;;;;;2.60;100.00;102437.63;5054016;28;20036;-79
2020/12/22 08:34:53;;;;;;;75.75;25.35;;;;;;;2.83;100.00;102438.59;5043712;28;20029;-79
2020/12/22 08:37:25;;;;;;;70.05;25.10;;;;;;;2.70;100.00;102432.59;5040087;28;20126;-79
2020/12/22 08:39:52;;;;;;;80.70;27.45;;;;;;;2.79;100.00;102438.94;5046585;28;20033;-77
2020/12/22 08:42:19;;;;;;;69.30;24.25;;;;;;;2.89;100.00;102442.56;5051571;28;20032;-80
2020/12/22 08:44:52;;;;;;;56.15;21.85;;;;;;;2.59;100.00;102438.59;5049431;28;20039;-79
2020/12/22 08:47:20;;;;;;;66.85;23.02;;;;;;;2.79;100.00;102439.78;5047315;28;20047;-79
2020/12/22 08:49:49;;;;;;;73.57;26.52;;;;;;;3.01;100.00;102436.41;5046675;28;20033;-79
2020/12/22 08:52:18;;;;;;;96.70;35.03;;;;;;;2.94;100.00;102430.78;5052796;28;20120;-77
2020/12/22 08:54:44;;;;;;;84.55;29.55;;;;;;;3.02;100.00;102429.34;5053524;28;20059;-77
2020/12/22 08:57:15;;;;;;;72.22;26.98;;;;;;;3.01;100.00;102425.88;5051653;28;20032;-78
2020/12/22 08:59:42;;;;;;;72.57;25.95;;;;;;;3.04;100.00;102424.84;5053016;28;20039;-79
2020/12/22 09:02:26;;;;;;;72.13;26.63;;;;;;;2.93;100.00;102421.19;5052946;28;20116;-78
2020/12/22 09:04:51;;;;;;;71.10;28.25;;;;;;;3.05;100.00;102416.81;5053064;28;20489;-80
2020/12/22 09:07:17;;;;;;;88.65;30.42;;;;;;;2.97;100.00;102420.03;5054232;28;20115;-79
2020/12/22 09:09:42;;;;;;;74.47;27.73;;;;;;;3.04;100.00;102416.94;5053338;28;20039;-78
2020/12/22 09:12:10;;;;;;;72.63;26.30;;;;;;;2.96;100.00;102413.09;5052973;28;20033;-77
2020/12/22 09:14:43;;;;;;;77.68;29.65;;;;;;;2.86;100.00;102412.13;5054076;28;20040;-79
2020/12/22 09:17:10;;;;;;;154.98;64.65;;;;;;;2.94;100.00;102408.94;5053731;28;20036;-79
2020/12/22 09:19:49;;;;;;;107.40;50.95;;;;;;;2.95;100.00;102406.19;5052864;28;20109;-78
2020/12/22 09:22:20;;;;;;;88.88;38.55;;;;;;;2.97;100.00;102403.47;5052318;28;20040;-78
2020/12/22 09:24:49;;;;;;;74.97;27.33;;;;;;;2.76;100.00;102408.50;5052034;28;20037;-79
2020/12/22 09:27:15;;;;;;;70.75;27.52;;;;;;;2.80;100.00;102393.38;5052656;28;20087;-79
2020/12/22 09:29:42;;;;;;;75.25;26.15;;;;;;;2.65;100.00;102397.97;5052680;28;20446;-79
2020/12/22 09:32:09;;;;;;;89.35;35.10;;;;;;;2.73;100.00;102393.00;5052737;28;20036;-79
2020/12/22 09:34:36;;;;;;;85.35;32.15;;;;;;;4.92;100.00;102396.75;5052671;28;20032;-77
2020/12/22 09:37:05;;;;;;;73.75;25.17;;;;;;;5.87;94.94;102395.72;5051594;28;20032;-78
2020/12/22 09:39:32;;;;;;;74.72;31.98;;;;;;;4.01;98.29;102399.81;5049496;28;20025;-77
2020/12/22 09:41:58;;;;;;;76.95;31.92;;;;;;;2.87;100.00;102387.53;5051427;28;20047;-77
2020/12/22 09:44:24;;;;;;;82.28;30.00;;;;;;;2.59;100.00;102394.00;5051041;28;20458;-76
2020/12/22 09:46:52;;;;;;;105.53;44.08;;;;;;;2.75;100.00;102391.94;5051185;28;20386;-77
2020/12/22 09:49:19;;;;;;;96.10;34.90;;;;;;;2.93;100.00;102381.81;5049424;28;20024;-77
2020/12/22 09:51:45;;;;;;;73.45;30.25;;;;;;;2.80;100.00;102386.31;5051448;28;20040;-77
2020/12/22 09:54:11;;;;;;;87.05;32.78;;;;;;;2.98;100.00;102374.44;5066994;28;20043;-77
2020/12/22 09:56:37;;;;;;;109.60;41.00;;;;;;;2.93;100.00;102375.75;5052150;28;20028;-77
2020/12/22 09:59:03;;;;;;;120.13;45.58;;;;;;;2.92;100.00;102372.28;5049769;28;20024;-77
2020/12/22 10:01:28;;;;;;;94.45;37.63;;;;;;;2.90;100.00;102375.97;5052496;28;20170;-78
2020/12/22 10:03:54;;;;;;;96.95;38.63;;;;;;;2.96;100.00;102372.88;5051707;28;20024;-77
2020/12/22 10:06:22;;;;;;;83.13;30.85;;;;;;;2.92;100.00;102379.34;5052155;28;20095;-77
2020/12/22 10:08:48;;;;;;;107.65;41.20;;;;;;;2.85;100.00;102373.72;5052553;28;20078;-77
2020/12/22 10:11:16;;;;;;;88.10;34.92;;;;;;;3.11;100.00;102376.97;5052358;28;20020;-77
2020/12/22 10:13:42;;;;;;;90.30;31.88;;;;;;;2.91;100.00;102368.00;5052506;28;20108;-78
2020/12/22 10:16:09;;;;;;;78.50;28.70;;;;;;;3.04;100.00;102367.91;5049417;28;20191;-77
2020/12/22 10:18:35;;;;;;;93.05;34.67;;;;;;;3.14;100.00;102366.25;5052052;28;20054;-77
2020/12/22 10:21:06;;;;;;;83.05;31.70;;;;;;;2.94;100.00;102359.06;5050536;28;20116;-77
2020/12/22 10:23:32;;;;;;;80.95;31.83;;;;;;;2.84;100.00;102358.06;5043773;28;20044;-77
2020/12/22 10:25:58;;;;;;;89.25;31.90;;;;;;;2.74;100.00;102357.94;5035853;28;20025;-78
2020/12/22 10:28:23;;;;;;;85.18;32.42;;;;;;;3.16;100.00;102356.47;5040469;28;20106;-77
2020/12/22 10:30:49;;;;;;;87.88;32.83;;;;;;;3.17;100.00;102346.78;5035858;28;20018;-77
2020/12/22 10:33:14;;;;;;;96.93;34.00;;;;;;;3.36;100.00;102343.56;5042334;28;20028;-77
2020/12/22 10:35:40;;;;;;;87.78;35.35;;;;;;;3.20;100.00;102349.19;5033067;28;20118;-77
2020/12/22 10:38:05;;;;;;;106.25;42.28;;;;;;;3.06;100.00;102344.19;5049743;28;20087;-77
2020/12/22 10:40:31;;;;;;;84.93;34.45;;;;;;;3.44;100.00;102336.78;5034131;28;20460;-77
2020/12/22 10:42:56;;;;;;;79.50;32.22;;;;;;;3.55;100.00;102335.94;5047223;28;20422;-77
2020/12/22 10:45:22;;;;;;;73.13;29.33;;;;;;;3.47;100.00;102335.72;5051829;28;20025;-77
2020/12/22 10:47:47;;;;;;;70.50;30.15;;;;;;;3.25;100.00;102322.59;5051103;28;20029;-77
2020/12/22 10:50:12;;;;;;;88.78;35.17;;;;;;;3.26;100.00;102319.81;5050538;28;20024;-77
2020/12/22 10:52:38;;;;;;;96.25;37.40;;;;;;;3.33;100.00;102313.16;5051811;28;20044;-77
2020/12/22 10:55:04;;;;;;;85.75;36.83;;;;;;;3.30;100.00;102315.16;5052042;28;20025;-77
2020/12/22 10:57:29;;;;;;;82.60;34.10;;;;;;;3.62;100.00;102310.03;5051799;28;20025;-77
2020/12/22 10:59:55;;;;;;;88.07;39.88;;;;;;;3.65;100.00;102310.59;5051104;28;20032;-77
2020/12/22 11:02:21;;;;;;;75.18;32.22;;;;;;;3.63;100.00;102309.06;5051693;28;20378;-77
2020/12/22 11:04:47;;;;;;;65.70;27.17;;;;;;;3.51;100.00;102299.50;5050412;28;20035;-77
2020/12/22 11:07:22;;;;;;;67.68;28.15;;;;;;;3.47;100.00;102301.56;5050438;28;20025;-77